sensor_id;sensor_type;location;lat;lon;timestamp;P1;durP1;ratioP1;P2;durP2;ratioP2
3543;SDS011;1786;52.870;9.578;2022-12-29T00:00:05;1.07;;;1.07;;
3543;SDS011;1786;52.870;9.578;2022-12-29T00:02:39;1.03;;;1.00;;
3543;SDS011;1786;52.870;9.578;2022-12-29T00:05:07;1.20;;;1.20;;
3543;SDS011;1786;52.870;9.578;2022-12-29T00:07:33;1.67;;;1.47;;
3543;SDS011;1786;52.870;9.578;2022-12-29T00:10:00;1.30;;;1.30;;
3543;SDS011;1786;52.870;9.578;2022-12-29T00:12:27;1.37;;;1.27;;
3543;SDS011;1786;52.870;9.578;2022-12-29T00:15:14;1.47;;;1.40;;
3543;SDS011;1786;52.870;9.578;2022-12-29T00:18:00;1.20;;;1.17;;
3543;SDS011;1786;52.870;9.578;2022-12-29T00:20:27;7.43;;;1.50;;
3543;SDS011;1786;52.870;9.578;2022-12-29T00:23:28;1.30;;;1.20;;
3543;SDS011;1786;52.870;9.578;2022-12-29T00:26:14;1.37;;;0.97;;
3543;SDS011;1786;52.870;9.578;2022-12-29T00:29:02;1.50;;;1.50;;
3543;SDS011;1786;52.870;9.578;2022-12-29T00:31:47;1.20;;;1.20;;
3543;SDS011;1786;52.870;9.578;2022-12-29T00:34:32;2.50;;;1.10;;
3543;SDS011;1786;52.870;9.578;2022-12-29T00:37:18;3.07;;;1.20;;
3543;SDS011;1786;52.870;9.578;2022-12-29T00:40:04;1.43;;;1.33;;
3543;SDS011;1786;52.870;9.578;2022-12-29T00:42:51;1.27;;;1.27;;
3543;SDS011;1786;52.870;9.578;2022-12-29T00:45:41;1.70;;;1.60;;
3543;SDS011;1786;52.870;9.578;2022-12-29T00:48:08;1.57;;;1.20;;
3543;SDS011;1786;52.870;9.578;2022-12-29T00:50:35;0.90;;;0.90;;
3543;SDS011;1786;52.870;9.578;2022-12-29T00:53:02;1.70;;;1.37;;
3543;SDS011;1786;52.870;9.578;2022-12-29T00:55:28;0.90;;;0.90;;
3543;SDS011;1786;52.870;9.578;2022-12-29T00:57:55;1.00;;;1.00;;
3543;SDS011;1786;52.870;9.578;2022-12-29T01:00:22;1.50;;;1.07;;
3543;SDS011;1786;52.870;9.578;2022-12-29T01:02:48;1.77;;;1.33;;
3543;SDS011;1786;52.870;9.578;2022-12-29T01:05:15;1.80;;;1.10;;
3543;SDS011;1786;52.870;9.578;2022-12-29T01:07:44;1.40;;;1.30;;
3543;SDS011;1786;52.870;9.578;2022-12-29T01:10:11;1.30;;;1.27;;
3543;SDS011;1786;52.870;9.578;2022-12-29T01:12:38;1.10;;;1.10;;
3543;SDS011;1786;52.870;9.578;2022-12-29T01:15:09;2.13;;;1.37;;
3543;SDS011;1786;52.870;9.578;2022-12-29T01:17:37;1.20;;;1.10;;
3543;SDS011;1786;52.870;9.578;2022-12-29T01:20:05;1.30;;;1.30;;
3543;SDS011;1786;52.870;9.578;2022-12-29T01:22:32;1.13;;;1.13;;
3543;SDS011;1786;52.870;9.578;2022-12-29T01:24:59;1.00;;;1.00;;
3543;SDS011;1786;52.870;9.578;2022-12-29T01:27:25;1.23;;;1.23;;
3543;SDS011;1786;52.870;9.578;2022-12-29T01:29:52;1.20;;;1.20;;
3543;SDS011;1786;52.870;9.578;2022-12-29T01:32:18;2.53;;;1.10;;
3543;SDS011;1786;52.870;9.578;2022-12-29T01:34:45;1.10;;;1.10;;
3543;SDS011;1786;52.870;9.578;2022-12-29T01:37:12;1.60;;;0.90;;
3543;SDS011;1786;52.870;9.578;2022-12-29T01:39:39;1.10;;;1.10;;
3543;SDS011;1786;52.870;9.578;2022-12-29T01:42:10;1.37;;;1.27;;
3543;SDS011;1786;52.870;9.578;2022-12-29T01:44:47;2.83;;;1.23;;
3543;SDS011;1786;52.870;9.578;2022-12-29T01:47:36;1.37;;;1.23;;
3543;SDS011;1786;52.870;9.578;2022-12-29T01:53:32;1.37;;;1.20;;
3543;SDS011;1786;52.870;9.578;2022-12-29T01:55:49;2.30;;;1.23;;
3543;SDS011;1786;52.870;9.578;2022-12-29T01:58:19;1.20;;;1.10;;
3543;SDS011;1786;52.870;9.578;2022-12-29T02:00:48;1.03;;;1.00;;
3543;SDS011;1786;52.870;9.578;2022-12-29T02:03:16;1.20;;;1.10;;
3543;SDS011;1786;52.870;9.578;2022-12-29T02:05:47;1.20;;;1.10;;
3543;SDS011;1786;52.870;9.578;2022-12-29T02:08:24;0.80;;;0.80;;
3543;SDS011;1786;52.870;9.578;2022-12-29T02:10:58;1.30;;;1.20;;
3543;SDS011;1786;52.870;9.578;2022-12-29T02:13:26;1.10;;;1.10;;
3543;SDS011;1786;52.870;9.578;2022-12-29T02:22:08;0.93;;;0.93;;
3543;SDS011;1786;52.870;9.578;2022-12-29T02:35:29;1.70;;;0.90;;
3543;SDS011;1786;52.870;9.578;2022-12-29T02:38:12;0.93;;;0.93;;
3543;SDS011;1786;52.870;9.578;2022-12-29T02:40:56;1.90;;;1.00;;
3543;SDS011;1786;52.870;9.578;2022-12-29T02:43:35;1.03;;;0.83;;
3543;SDS011;1786;52.870;9.578;2022-12-29T02:49:18;0.83;;;0.83;;
3543;SDS011;1786;52.870;9.578;2022-12-29T02:51:52;1.50;;;0.90;;
3543;SDS011;1786;52.870;9.578;2022-12-29T02:54:24;1.30;;;1.20;;
3543;SDS011;1786;52.870;9.578;2022-12-29T02:57:11;3.23;;;1.33;;
3543;SDS011;1786;52.870;9.578;2022-12-29T03:02:44;0.70;;;0.70;;
3543;SDS011;1786;52.870;9.578;2022-12-29T03:08:26;0.70;;;0.70;;
3543;SDS011;1786;52.870;9.578;2022-12-29T03:11:02;1.17;;;0.90;;
3543;SDS011;1786;52.870;9.578;2022-12-29T03:13:48;0.73;;;0.73;;
3543;SDS011;1786;52.870;9.578;2022-12-29T03:16:45;0.70;;;0.70;;
3543;SDS011;1786;52.870;9.578;2022-12-29T03:19:26;1.73;;;0.73;;
3543;SDS011;1786;52.870;9.578;2022-12-29T03:22:05;0.70;;;0.70;;
3543;SDS011;1786;52.870;9.578;2022-12-29T03:25:01;0.80;;;0.80;;
3543;SDS011;1786;52.870;9.578;2022-12-29T03:27:39;0.87;;;0.87;;
3543;SDS011;1786;52.870;9.578;2022-12-29T03:30:24;0.70;;;0.70;;
3543;SDS011;1786;52.870;9.578;2022-12-29T03:32:58;0.60;;;0.60;;
3543;SDS011;1786;52.870;9.578;2022-12-29T03:35:31;1.27;;;0.70;;
3543;SDS011;1786;52.870;9.578;2022-12-29T03:40:40;1.27;;;0.70;;
3543;SDS011;1786;52.870;9.578;2022-12-29T03:43:10;0.93;;;0.70;;
3543;SDS011;1786;52.870;9.578;2022-12-29T03:45:39;0.73;;;0.73;;
3543;SDS011;1786;52.870;9.578;2022-12-29T03:48:06;0.70;;;0.70;;
3543;SDS011;1786;52.870;9.578;2022-12-29T03:50:36;0.60;;;0.60;;
3543;SDS011;1786;52.870;9.578;2022-12-29T03:53:02;1.03;;;0.70;;
3543;SDS011;1786;52.870;9.578;2022-12-29T03:55:30;0.90;;;0.90;;
3543;SDS011;1786;52.870;9.578;2022-12-29T03:57:57;0.60;;;0.60;;
3543;SDS011;1786;52.870;9.578;2022-12-29T04:00:44;0.60;;;0.60;;
3543;SDS011;1786;52.870;9.578;2022-12-29T04:03:11;0.60;;;0.60;;
3543;SDS011;1786;52.870;9.578;2022-12-29T04:05:38;0.60;;;0.60;;
3543;SDS011;1786;52.870;9.578;2022-12-29T04:08:05;0.70;;;0.70;;
3543;SDS011;1786;52.870;9.578;2022-12-29T04:10:31;0.50;;;0.50;;
3543;SDS011;1786;52.870;9.578;2022-12-29T04:13:01;0.60;;;0.60;;
3543;SDS011;1786;52.870;9.578;2022-12-29T04:15:28;1.70;;;0.67;;
3543;SDS011;1786;52.870;9.578;2022-12-29T04:17:56;0.63;;;0.63;;
3543;SDS011;1786;52.870;9.578;2022-12-29T04:20:23;0.60;;;0.60;;
3543;SDS011;1786;52.870;9.578;2022-12-29T04:23:08;0.60;;;0.60;;
3543;SDS011;1786;52.870;9.578;2022-12-29T04:25:36;0.77;;;0.70;;
3543;SDS011;1786;52.870;9.578;2022-12-29T04:28:06;0.50;;;0.50;;
3543;SDS011;1786;52.870;9.578;2022-12-29T04:30:47;0.60;;;0.60;;
3543;SDS011;1786;52.870;9.578;2022-12-29T04:33:20;1.90;;;0.60;;
3543;SDS011;1786;52.870;9.578;2022-12-29T04:35:48;0.50;;;0.50;;
3543;SDS011;1786;52.870;9.578;2022-12-29T04:38:16;0.60;;;0.60;;
3543;SDS011;1786;52.870;9.578;2022-12-29T04:40:44;0.50;;;0.50;;
3543;SDS011;1786;52.870;9.578;2022-12-29T04:43:11;0.70;;;0.70;;
3543;SDS011;1786;52.870;9.578;2022-12-29T04:45:56;1.10;;;0.60;;
3543;SDS011;1786;52.870;9.578;2022-12-29T04:48:31;0.63;;;0.63;;
3543;SDS011;1786;52.870;9.578;2022-12-29T04:51:10;1.80;;;0.50;;
3543;SDS011;1786;52.870;9.578;2022-12-29T04:53:38;0.60;;;0.60;;
3543;SDS011;1786;52.870;9.578;2022-12-29T04:56:06;0.50;;;0.50;;
3543;SDS011;1786;52.870;9.578;2022-12-29T04:58:33;0.60;;;0.60;;
3543;SDS011;1786;52.870;9.578;2022-12-29T05:01:00;0.50;;;0.50;;
3543;SDS011;1786;52.870;9.578;2022-12-29T05:03:29;0.60;;;0.60;;
3543;SDS011;1786;52.870;9.578;2022-12-29T05:05:56;0.60;;;0.60;;
3543;SDS011;1786;52.870;9.578;2022-12-29T05:08:23;1.17;;;0.50;;
3543;SDS011;1786;52.870;9.578;2022-12-29T05:10:57;0.50;;;0.50;;
3543;SDS011;1786;52.870;9.578;2022-12-29T05:13:25;0.80;;;0.80;;
3543;SDS011;1786;52.870;9.578;2022-12-29T05:15:52;0.80;;;0.70;;
3543;SDS011;1786;52.870;9.578;2022-12-29T05:18:21;1.00;;;0.53;;
3543;SDS011;1786;52.870;9.578;2022-12-29T05:20:48;1.27;;;0.60;;
3543;SDS011;1786;52.870;9.578;2022-12-29T05:23:17;0.60;;;0.60;;
3543;SDS011;1786;52.870;9.578;2022-12-29T05:25:48;0.60;;;0.60;;
3543;SDS011;1786;52.870;9.578;2022-12-29T05:28:18;0.60;;;0.60;;
3543;SDS011;1786;52.870;9.578;2022-12-29T05:30:52;0.70;;;0.70;;
3543;SDS011;1786;52.870;9.578;2022-12-29T05:33:18;2.23;;;0.80;;
3543;SDS011;1786;52.870;9.578;2022-12-29T05:35:48;0.90;;;0.90;;
3543;SDS011;1786;52.870;9.578;2022-12-29T05:38:16;0.60;;;0.60;;
3543;SDS011;1786;52.870;9.578;2022-12-29T05:40:44;0.60;;;0.60;;
3543;SDS011;1786;52.870;9.578;2022-12-29T05:43:45;0.77;;;0.70;;
3543;SDS011;1786;52.870;9.578;2022-12-29T05:46:31;0.60;;;0.60;;
3543;SDS011;1786;52.870;9.578;2022-12-29T05:49:09;0.60;;;0.60;;
3543;SDS011;1786;52.870;9.578;2022-12-29T05:51:51;2.03;;;0.90;;
3543;SDS011;1786;52.870;9.578;2022-12-29T05:54:17;0.57;;;0.57;;
3543;SDS011;1786;52.870;9.578;2022-12-29T05:56:44;4.00;;;1.00;;
3543;SDS011;1786;52.870;9.578;2022-12-29T05:59:12;1.23;;;0.70;;
3543;SDS011;1786;52.870;9.578;2022-12-29T06:01:39;0.70;;;0.70;;
3543;SDS011;1786;52.870;9.578;2022-12-29T06:04:06;0.63;;;0.63;;
3543;SDS011;1786;52.870;9.578;2022-12-29T06:06:33;1.73;;;0.90;;
3543;SDS011;1786;52.870;9.578;2022-12-29T06:09:01;0.70;;;0.70;;
3543;SDS011;1786;52.870;9.578;2022-12-29T06:11:28;0.80;;;0.80;;
3543;SDS011;1786;52.870;9.578;2022-12-29T06:13:57;1.07;;;0.73;;
3543;SDS011;1786;52.870;9.578;2022-12-29T06:16:24;2.60;;;0.70;;
3543;SDS011;1786;52.870;9.578;2022-12-29T06:18:54;2.00;;;0.67;;
3543;SDS011;1786;52.870;9.578;2022-12-29T06:21:21;0.80;;;0.70;;
3543;SDS011;1786;52.870;9.578;2022-12-29T06:23:47;0.60;;;0.60;;
3543;SDS011;1786;52.870;9.578;2022-12-29T06:26:14;0.70;;;0.70;;
3543;SDS011;1786;52.870;9.578;2022-12-29T06:28:42;1.70;;;1.20;;
3543;SDS011;1786;52.870;9.578;2022-12-29T06:31:10;3.30;;;0.60;;
3543;SDS011;1786;52.870;9.578;2022-12-29T06:33:37;0.73;;;0.53;;
3543;SDS011;1786;52.870;9.578;2022-12-29T06:36:04;0.60;;;0.60;;
3543;SDS011;1786;52.870;9.578;2022-12-29T06:38:31;0.60;;;0.60;;
3543;SDS011;1786;52.870;9.578;2022-12-29T06:40:58;0.50;;;0.50;;
3543;SDS011;1786;52.870;9.578;2022-12-29T06:43:34;1.17;;;0.70;;
3543;SDS011;1786;52.870;9.578;2022-12-29T06:46:14;1.80;;;0.60;;
3543;SDS011;1786;52.870;9.578;2022-12-29T06:48:41;0.60;;;0.60;;
3543;SDS011;1786;52.870;9.578;2022-12-29T06:51:08;0.67;;;0.47;;
3543;SDS011;1786;52.870;9.578;2022-12-29T06:53:35;1.73;;;0.50;;
3543;SDS011;1786;52.870;9.578;2022-12-29T06:56:02;1.77;;;0.60;;
3543;SDS011;1786;52.870;9.578;2022-12-29T06:58:29;0.60;;;0.60;;
3543;SDS011;1786;52.870;9.578;2022-12-29T07:00:56;0.70;;;0.70;;
3543;SDS011;1786;52.870;9.578;2022-12-29T07:03:22;0.57;;;0.57;;
3543;SDS011;1786;52.870;9.578;2022-12-29T07:05:49;0.50;;;0.50;;
3543;SDS011;1786;52.870;9.578;2022-12-29T07:08:16;0.60;;;0.60;;
3543;SDS011;1786;52.870;9.578;2022-12-29T07:10:43;0.73;;;0.50;;
3543;SDS011;1786;52.870;9.578;2022-12-29T07:13:10;1.33;;;0.70;;
3543;SDS011;1786;52.870;9.578;2022-12-29T07:15:37;2.27;;;0.70;;
3543;SDS011;1786;52.870;9.578;2022-12-29T07:18:03;0.83;;;0.57;;
3543;SDS011;1786;52.870;9.578;2022-12-29T07:20:31;0.60;;;0.60;;
3543;SDS011;1786;52.870;9.578;2022-12-29T07:22:58;0.70;;;0.70;;
3543;SDS011;1786;52.870;9.578;2022-12-29T07:25:24;1.73;;;0.70;;
3543;SDS011;1786;52.870;9.578;2022-12-29T07:27:51;1.17;;;0.83;;
3543;SDS011;1786;52.870;9.578;2022-12-29T07:30:17;1.13;;;0.60;;
3543;SDS011;1786;52.870;9.578;2022-12-29T07:32:44;0.83;;;0.83;;
3543;SDS011;1786;52.870;9.578;2022-12-29T07:35:11;1.77;;;0.57;;
3543;SDS011;1786;52.870;9.578;2022-12-29T07:37:38;1.00;;;0.63;;
3543;SDS011;1786;52.870;9.578;2022-12-29T07:40:04;0.70;;;0.70;;
3543;SDS011;1786;52.870;9.578;2022-12-29T07:42:31;0.70;;;0.70;;
3543;SDS011;1786;52.870;9.578;2022-12-29T07:44:58;0.60;;;0.60;;
3543;SDS011;1786;52.870;9.578;2022-12-29T07:47:49;0.77;;;0.70;;
3543;SDS011;1786;52.870;9.578;2022-12-29T07:50:16;1.53;;;1.10;;
3543;SDS011;1786;52.870;9.578;2022-12-29T07:52:44;1.70;;;1.20;;
3543;SDS011;1786;52.870;9.578;2022-12-29T07:55:11;0.60;;;0.60;;
3543;SDS011;1786;52.870;9.578;2022-12-29T07:57:37;1.10;;;0.70;;
3543;SDS011;1786;52.870;9.578;2022-12-29T08:00:04;0.70;;;0.70;;
3543;SDS011;1786;52.870;9.578;2022-12-29T08:02:37;0.50;;;0.50;;
3543;SDS011;1786;52.870;9.578;2022-12-29T08:05:04;2.73;;;0.67;;
3543;SDS011;1786;52.870;9.578;2022-12-29T08:07:31;0.70;;;0.70;;
3543;SDS011;1786;52.870;9.578;2022-12-29T08:09:57;0.60;;;0.60;;
3543;SDS011;1786;52.870;9.578;2022-12-29T08:12:25;0.80;;;0.80;;
3543;SDS011;1786;52.870;9.578;2022-12-29T08:14:51;1.00;;;0.60;;
3543;SDS011;1786;52.870;9.578;2022-12-29T08:17:18;1.90;;;0.60;;
3543;SDS011;1786;52.870;9.578;2022-12-29T08:19:45;1.90;;;0.70;;
3543;SDS011;1786;52.870;9.578;2022-12-29T08:22:12;1.37;;;0.70;;
3543;SDS011;1786;52.870;9.578;2022-12-29T08:24:40;1.40;;;0.70;;
3543;SDS011;1786;52.870;9.578;2022-12-29T08:27:06;0.60;;;0.60;;
3543;SDS011;1786;52.870;9.578;2022-12-29T08:29:45;1.03;;;0.60;;
3543;SDS011;1786;52.870;9.578;2022-12-29T08:32:12;2.37;;;0.63;;
3543;SDS011;1786;52.870;9.578;2022-12-29T08:34:39;1.40;;;0.80;;
3543;SDS011;1786;52.870;9.578;2022-12-29T08:37:05;1.40;;;0.70;;
3543;SDS011;1786;52.870;9.578;2022-12-29T08:39:32;0.60;;;0.60;;
3543;SDS011;1786;52.870;9.578;2022-12-29T08:41:59;0.60;;;0.60;;
3543;SDS011;1786;52.870;9.578;2022-12-29T08:44:25;1.70;;;0.80;;
3543;SDS011;1786;52.870;9.578;2022-12-29T08:46:52;9.67;;;0.70;;
3543;SDS011;1786;52.870;9.578;2022-12-29T08:49:19;1.90;;;1.00;;
3543;SDS011;1786;52.870;9.578;2022-12-29T08:51:45;0.90;;;0.60;;
3543;SDS011;1786;52.870;9.578;2022-12-29T08:54:12;1.27;;;0.87;;
3543;SDS011;1786;52.870;9.578;2022-12-29T08:56:39;0.90;;;0.80;;
3543;SDS011;1786;52.870;9.578;2022-12-29T08:59:06;5.80;;;0.83;;
3543;SDS011;1786;52.870;9.578;2022-12-29T09:01:33;2.20;;;1.10;;
3543;SDS011;1786;52.870;9.578;2022-12-29T09:04:02;1.33;;;0.80;;
3543;SDS011;1786;52.870;9.578;2022-12-29T09:06:41;0.73;;;0.70;;
3543;SDS011;1786;52.870;9.578;2022-12-29T09:09:08;3.07;;;0.70;;
3543;SDS011;1786;52.870;9.578;2022-12-29T09:11:35;3.50;;;0.67;;
3543;SDS011;1786;52.870;9.578;2022-12-29T09:14:01;1.87;;;0.90;;
3543;SDS011;1786;52.870;9.578;2022-12-29T09:16:28;1.57;;;0.80;;
3543;SDS011;1786;52.870;9.578;2022-12-29T09:18:54;4.50;;;0.97;;
3543;SDS011;1786;52.870;9.578;2022-12-29T09:21:21;3.50;;;0.70;;
3543;SDS011;1786;52.870;9.578;2022-12-29T09:23:48;2.43;;;1.10;;
3543;SDS011;1786;52.870;9.578;2022-12-29T09:26:15;0.77;;;0.77;;
3543;SDS011;1786;52.870;9.578;2022-12-29T09:28:41;1.13;;;0.80;;
3543;SDS011;1786;52.870;9.578;2022-12-29T09:31:08;2.40;;;0.90;;
3543;SDS011;1786;52.870;9.578;2022-12-29T09:33:35;1.80;;;1.00;;
3543;SDS011;1786;52.870;9.578;2022-12-29T09:36:02;1.27;;;1.00;;
3543;SDS011;1786;52.870;9.578;2022-12-29T09:38:30;1.73;;;0.87;;
3543;SDS011;1786;52.870;9.578;2022-12-29T09:41:01;3.47;;;1.20;;
3543;SDS011;1786;52.870;9.578;2022-12-29T09:46:29;0.90;;;0.90;;
3543;SDS011;1786;52.870;9.578;2022-12-29T09:51:34;1.03;;;0.97;;
3543;SDS011;1786;52.870;9.578;2022-12-29T09:54:12;6.23;;;1.00;;
3543;SDS011;1786;52.870;9.578;2022-12-29T09:57:01;6.40;;;1.27;;
3543;SDS011;1786;52.870;9.578;2022-12-29T09:59:36;5.33;;;1.00;;
3543;SDS011;1786;52.870;9.578;2022-12-29T10:02:12;1.90;;;1.07;;
3543;SDS011;1786;52.870;9.578;2022-12-29T10:04:41;2.70;;;0.90;;
3543;SDS011;1786;52.870;9.578;2022-12-29T10:07:33;2.83;;;1.07;;
3543;SDS011;1786;52.870;9.578;2022-12-29T10:10:29;0.80;;;0.80;;
3543;SDS011;1786;52.870;9.578;2022-12-29T10:13:21;1.23;;;1.13;;
3543;SDS011;1786;52.870;9.578;2022-12-29T10:19:05;3.87;;;1.03;;
3543;SDS011;1786;52.870;9.578;2022-12-29T10:21:44;2.23;;;1.23;;
3543;SDS011;1786;52.870;9.578;2022-12-29T10:24:25;3.50;;;0.73;;
3543;SDS011;1786;52.870;9.578;2022-12-29T10:26:55;1.90;;;1.20;;
3543;SDS011;1786;52.870;9.578;2022-12-29T10:29:29;1.73;;;1.03;;
3543;SDS011;1786;52.870;9.578;2022-12-29T10:32:04;1.67;;;1.13;;
3543;SDS011;1786;52.870;9.578;2022-12-29T10:34:39;2.83;;;1.07;;
3543;SDS011;1786;52.870;9.578;2022-12-29T10:37:17;2.40;;;1.00;;
3543;SDS011;1786;52.870;9.578;2022-12-29T10:39:59;4.70;;;1.40;;
3543;SDS011;1786;52.870;9.578;2022-12-29T10:42:40;4.63;;;0.90;;
3543;SDS011;1786;52.870;9.578;2022-12-29T10:45:13;2.97;;;0.90;;
3543;SDS011;1786;52.870;9.578;2022-12-29T10:47:51;6.73;;;1.90;;
3543;SDS011;1786;52.870;9.578;2022-12-29T10:50:23;4.37;;;1.23;;
3543;SDS011;1786;52.870;9.578;2022-12-29T10:52:52;1.10;;;1.00;;
3543;SDS011;1786;52.870;9.578;2022-12-29T10:55:28;3.63;;;1.00;;
3543;SDS011;1786;52.870;9.578;2022-12-29T10:58:00;1.13;;;0.87;;
3543;SDS011;1786;52.870;9.578;2022-12-29T11:00:31;5.70;;;1.10;;
3543;SDS011;1786;52.870;9.578;2022-12-29T11:06:00;6.57;;;1.10;;
3543;SDS011;1786;52.870;9.578;2022-12-29T11:08:34;14.73;;;1.10;;
3543;SDS011;1786;52.870;9.578;2022-12-29T11:11:09;2.93;;;1.70;;
3543;SDS011;1786;52.870;9.578;2022-12-29T11:13:47;3.27;;;1.50;;
3543;SDS011;1786;52.870;9.578;2022-12-29T11:16:23;7.30;;;2.13;;
3543;SDS011;1786;52.870;9.578;2022-12-29T11:18:54;3.90;;;0.73;;
3543;SDS011;1786;52.870;9.578;2022-12-29T11:24:03;2.70;;;1.30;;
3543;SDS011;1786;52.870;9.578;2022-12-29T11:26:32;6.73;;;1.40;;
3543;SDS011;1786;52.870;9.578;2022-12-29T11:31:47;3.43;;;1.20;;
3543;SDS011;1786;52.870;9.578;2022-12-29T11:34:23;3.53;;;1.40;;
3543;SDS011;1786;52.870;9.578;2022-12-29T11:36:53;4.00;;;1.07;;
3543;SDS011;1786;52.870;9.578;2022-12-29T11:42:41;5.00;;;1.40;;
3543;SDS011;1786;52.870;9.578;2022-12-29T11:45:15;3.97;;;1.50;;
3543;SDS011;1786;52.870;9.578;2022-12-29T11:47:45;3.33;;;1.30;;
3543;SDS011;1786;52.870;9.578;2022-12-29T11:50:20;2.50;;;0.70;;
3543;SDS011;1786;52.870;9.578;2022-12-29T11:52:50;3.70;;;0.97;;
3543;SDS011;1786;52.870;9.578;2022-12-29T11:55:25;1.80;;;1.20;;
3543;SDS011;1786;52.870;9.578;2022-12-29T11:57:53;6.23;;;1.83;;
3543;SDS011;1786;52.870;9.578;2022-12-29T12:00:23;3.23;;;0.90;;
3543;SDS011;1786;52.870;9.578;2022-12-29T12:03:04;11.20;;;1.70;;
3543;SDS011;1786;52.870;9.578;2022-12-29T12:05:44;2.10;;;0.90;;
3543;SDS011;1786;52.870;9.578;2022-12-29T12:08:39;4.17;;;1.27;;
3543;SDS011;1786;52.870;9.578;2022-12-29T12:11:12;3.00;;;0.90;;
3543;SDS011;1786;52.870;9.578;2022-12-29T12:13:45;3.80;;;1.17;;
3543;SDS011;1786;52.870;9.578;2022-12-29T12:16:32;6.80;;;1.50;;
3543;SDS011;1786;52.870;9.578;2022-12-29T12:19:08;6.30;;;1.40;;
3543;SDS011;1786;52.870;9.578;2022-12-29T12:21:38;6.10;;;1.27;;
3543;SDS011;1786;52.870;9.578;2022-12-29T12:24:15;2.97;;;1.07;;
3543;SDS011;1786;52.870;9.578;2022-12-29T12:27:18;3.90;;;1.50;;
3543;SDS011;1786;52.870;9.578;2022-12-29T12:29:52;3.47;;;1.30;;
3543;SDS011;1786;52.870;9.578;2022-12-29T12:40:58;6.57;;;1.23;;
3543;SDS011;1786;52.870;9.578;2022-12-29T12:49:17;6.87;;;1.40;;
3543;SDS011;1786;52.870;9.578;2022-12-29T12:57:44;4.10;;;1.43;;
3543;SDS011;1786;52.870;9.578;2022-12-29T13:00:33;3.30;;;1.07;;
3543;SDS011;1786;52.870;9.578;2022-12-29T13:03:17;2.47;;;1.10;;
3543;SDS011;1786;52.870;9.578;2022-12-29T13:14:24;2.60;;;1.00;;
3543;SDS011;1786;52.870;9.578;2022-12-29T13:17:25;2.40;;;1.10;;
3543;SDS011;1786;52.870;9.578;2022-12-29T13:20:11;1.10;;;0.80;;
3543;SDS011;1786;52.870;9.578;2022-12-29T13:23:02;6.23;;;1.20;;
3543;SDS011;1786;52.870;9.578;2022-12-29T13:25:53;2.73;;;0.93;;
3543;SDS011;1786;52.870;9.578;2022-12-29T13:28:31;8.07;;;1.53;;
3543;SDS011;1786;52.870;9.578;2022-12-29T13:31:10;2.30;;;1.23;;
3543;SDS011;1786;52.870;9.578;2022-12-29T13:34:04;5.57;;;1.03;;
3543;SDS011;1786;52.870;9.578;2022-12-29T13:36:55;1.20;;;1.10;;
3543;SDS011;1786;52.870;9.578;2022-12-29T13:39:27;3.40;;;1.37;;
3543;SDS011;1786;52.870;9.578;2022-12-29T13:42:00;4.77;;;1.10;;
3543;SDS011;1786;52.870;9.578;2022-12-29T13:47:14;2.73;;;1.17;;
3543;SDS011;1786;52.870;9.578;2022-12-29T13:49:45;1.37;;;0.70;;
3543;SDS011;1786;52.870;9.578;2022-12-29T13:55:00;1.70;;;0.93;;
3543;SDS011;1786;52.870;9.578;2022-12-29T13:57:37;9.33;;;1.43;;
3543;SDS011;1786;52.870;9.578;2022-12-29T14:00:21;2.63;;;1.00;;
3543;SDS011;1786;52.870;9.578;2022-12-29T14:05:35;4.23;;;0.87;;
3543;SDS011;1786;52.870;9.578;2022-12-29T14:08:05;3.43;;;0.80;;
3543;SDS011;1786;52.870;9.578;2022-12-29T14:10:50;2.93;;;1.17;;
3543;SDS011;1786;52.870;9.578;2022-12-29T14:13:22;2.10;;;0.83;;
3543;SDS011;1786;52.870;9.578;2022-12-29T14:15:52;2.40;;;0.80;;
3543;SDS011;1786;52.870;9.578;2022-12-29T14:18:23;1.80;;;1.07;;
3543;SDS011;1786;52.870;9.578;2022-12-29T14:20:56;7.17;;;2.50;;
3543;SDS011;1786;52.870;9.578;2022-12-29T14:23:47;2.70;;;1.40;;
3543;SDS011;1786;52.870;9.578;2022-12-29T14:26:33;6.60;;;1.43;;
3543;SDS011;1786;52.870;9.578;2022-12-29T14:29:16;3.60;;;1.87;;
3543;SDS011;1786;52.870;9.578;2022-12-29T14:37:28;7.23;;;1.57;;
3543;SDS011;1786;52.870;9.578;2022-12-29T14:40:04;3.23;;;1.40;;
3543;SDS011;1786;52.870;9.578;2022-12-29T14:42:45;3.80;;;1.30;;
3543;SDS011;1786;52.870;9.578;2022-12-29T14:47:45;1.90;;;1.67;;
3543;SDS011;1786;52.870;9.578;2022-12-29T14:53:10;3.40;;;1.30;;
3543;SDS011;1786;52.870;9.578;2022-12-29T14:56:11;2.87;;;1.37;;
3543;SDS011;1786;52.870;9.578;2022-12-29T14:58:47;5.50;;;1.73;;
3543;SDS011;1786;52.870;9.578;2022-12-29T15:01:19;4.33;;;1.53;;
3543;SDS011;1786;52.870;9.578;2022-12-29T15:03:54;3.67;;;1.33;;
3543;SDS011;1786;52.870;9.578;2022-12-29T15:06:25;6.43;;;1.17;;
3543;SDS011;1786;52.870;9.578;2022-12-29T15:12:11;4.63;;;2.23;;
3543;SDS011;1786;52.870;9.578;2022-12-29T15:14:53;4.50;;;1.30;;
3543;SDS011;1786;52.870;9.578;2022-12-29T15:17:32;7.27;;;1.73;;
3543;SDS011;1786;52.870;9.578;2022-12-29T15:20:13;6.07;;;1.47;;
3543;SDS011;1786;52.870;9.578;2022-12-29T15:22:44;3.40;;;1.20;;
3543;SDS011;1786;52.870;9.578;2022-12-29T15:25:12;4.23;;;1.10;;
3543;SDS011;1786;52.870;9.578;2022-12-29T15:27:42;7.27;;;1.60;;
3543;SDS011;1786;52.870;9.578;2022-12-29T15:30:14;7.30;;;1.67;;
3543;SDS011;1786;52.870;9.578;2022-12-29T15:32:44;8.17;;;3.57;;
3543;SDS011;1786;52.870;9.578;2022-12-29T15:35:22;6.50;;;2.23;;
3543;SDS011;1786;52.870;9.578;2022-12-29T15:37:49;5.53;;;1.80;;
3543;SDS011;1786;52.870;9.578;2022-12-29T15:40:23;2.17;;;1.43;;
3543;SDS011;1786;52.870;9.578;2022-12-29T15:45:52;2.17;;;1.40;;
3543;SDS011;1786;52.870;9.578;2022-12-29T15:48:22;5.37;;;1.50;;
3543;SDS011;1786;52.870;9.578;2022-12-29T15:50:50;8.70;;;1.50;;
3543;SDS011;1786;52.870;9.578;2022-12-29T15:53:30;5.07;;;1.30;;
3543;SDS011;1786;52.870;9.578;2022-12-29T15:56:05;4.50;;;1.40;;
3543;SDS011;1786;52.870;9.578;2022-12-29T15:58:45;5.10;;;1.60;;
3543;SDS011;1786;52.870;9.578;2022-12-29T16:01:17;5.37;;;1.37;;
3543;SDS011;1786;52.870;9.578;2022-12-29T16:03:54;3.20;;;1.27;;
3543;SDS011;1786;52.870;9.578;2022-12-29T16:09:06;1.53;;;1.10;;
3543;SDS011;1786;52.870;9.578;2022-12-29T16:11:41;5.60;;;1.97;;
3543;SDS011;1786;52.870;9.578;2022-12-29T16:14:16;6.73;;;1.50;;
3543;SDS011;1786;52.870;9.578;2022-12-29T16:16:44;2.70;;;1.40;;
3543;SDS011;1786;52.870;9.578;2022-12-29T16:19:15;2.10;;;1.17;;
3543;SDS011;1786;52.870;9.578;2022-12-29T16:21:47;1.40;;;1.20;;
3543;SDS011;1786;52.870;9.578;2022-12-29T16:24:16;2.83;;;1.30;;
3543;SDS011;1786;52.870;9.578;2022-12-29T16:26:54;4.13;;;1.30;;
3543;SDS011;1786;52.870;9.578;2022-12-29T16:29:34;4.50;;;2.70;;
3543;SDS011;1786;52.870;9.578;2022-12-29T16:32:02;2.50;;;1.50;;
3543;SDS011;1786;52.870;9.578;2022-12-29T16:35:02;3.50;;;1.50;;
3543;SDS011;1786;52.870;9.578;2022-12-29T16:43:31;3.40;;;1.40;;
3543;SDS011;1786;52.870;9.578;2022-12-29T16:48:28;2.00;;;1.30;;
3543;SDS011;1786;52.870;9.578;2022-12-29T16:51:01;6.90;;;1.57;;
3543;SDS011;1786;52.870;9.578;2022-12-29T16:53:35;5.47;;;1.60;;
3543;SDS011;1786;52.870;9.578;2022-12-29T16:56:07;6.43;;;1.80;;
3543;SDS011;1786;52.870;9.578;2022-12-29T16:58:39;3.70;;;1.60;;
3543;SDS011;1786;52.870;9.578;2022-12-29T17:01:10;8.07;;;2.40;;
3543;SDS011;1786;52.870;9.578;2022-12-29T17:03:42;9.30;;;2.40;;
3543;SDS011;1786;52.870;9.578;2022-12-29T17:06:14;3.53;;;1.83;;
3543;SDS011;1786;52.870;9.578;2022-12-29T17:08:43;4.77;;;2.10;;
3543;SDS011;1786;52.870;9.578;2022-12-29T17:11:18;5.40;;;2.20;;
3543;SDS011;1786;52.870;9.578;2022-12-29T17:14:30;7.00;;;2.30;;
3543;SDS011;1786;52.870;9.578;2022-12-29T17:17:02;7.03;;;2.30;;
3543;SDS011;1786;52.870;9.578;2022-12-29T17:19:32;5.70;;;2.23;;
3543;SDS011;1786;52.870;9.578;2022-12-29T17:22:02;5.27;;;2.20;;
3543;SDS011;1786;52.870;9.578;2022-12-29T17:24:31;4.23;;;2.00;;
3543;SDS011;1786;52.870;9.578;2022-12-29T17:26:58;4.67;;;2.63;;
3543;SDS011;1786;52.870;9.578;2022-12-29T17:31:58;7.77;;;2.73;;
3543;SDS011;1786;52.870;9.578;2022-12-29T17:34:26;13.43;;;7.30;;
3543;SDS011;1786;52.870;9.578;2022-12-29T17:36:53;7.53;;;3.00;;
3543;SDS011;1786;52.870;9.578;2022-12-29T17:39:20;6.60;;;2.70;;
3543;SDS011;1786;52.870;9.578;2022-12-29T17:41:47;5.23;;;2.37;;
3543;SDS011;1786;52.870;9.578;2022-12-29T17:44:18;4.00;;;2.20;;
3543;SDS011;1786;52.870;9.578;2022-12-29T17:46:46;3.43;;;2.07;;
3543;SDS011;1786;52.870;9.578;2022-12-29T17:49:15;3.43;;;1.70;;